createdAt,value
2023-02-19T00:02:52.404Z,28.13
2023-02-19T00:07:48.723Z,20.33
2023-02-19T00:12:45.012Z,22.00
2023-02-19T00:17:41.289Z,18.08
2023-02-19T00:22:37.593Z,12.82
2023-02-19T00:27:33.913Z,9.98
2023-02-19T00:32:30.738Z,12.38
2023-02-19T00:37:27.016Z,14.85
2023-02-19T00:42:23.326Z,10.27
2023-02-19T00:47:19.613Z,12.07
2023-02-19T00:52:15.907Z,13.15
2023-02-19T00:57:12.193Z,13.48
2023-02-19T01:02:08.516Z,12.57
2023-02-19T01:07:04.909Z,17.15
2023-02-19T01:12:01.197Z,18.27
2023-02-19T01:16:57.576Z,17.80
2023-02-19T01:21:53.924Z,21.20
2023-02-19T01:26:50.262Z,22.58
2023-02-19T01:31:46.777Z,29.10
2023-02-19T01:36:43.176Z,29.30
2023-02-19T01:41:41.412Z,27.52
2023-02-19T01:46:40.341Z,25.70
2023-02-19T01:51:41.434Z,29.17
2023-02-19T01:56:40.716Z,30.45
2023-02-19T02:01:39.126Z,33.00
2023-02-19T02:06:43.034Z,29.08
2023-02-19T02:11:47.739Z,33.65
2023-02-19T02:17:11.893Z,28.77
2023-02-19T02:22:20.743Z,34.97
2023-02-19T02:27:30.678Z,34.08
2023-02-19T02:32:35.322Z,30.70
2023-02-19T02:37:36.031Z,35.05
2023-02-19T02:42:34.184Z,27.63
2023-02-19T02:47:42.888Z,31.80
2023-02-19T02:53:03.153Z,31.27
2023-02-19T02:57:59.574Z,28.60
2023-02-19T03:02:56.506Z,31.63
2023-02-19T03:08:11.935Z,34.75
2023-02-19T03:13:32.068Z,35.35
2023-02-19T03:18:51.095Z,37.03
2023-02-19T03:24:07.484Z,37.33
2023-02-19T03:29:23.169Z,36.83
2023-02-19T03:34:43.924Z,37.58
2023-02-19T03:39:46.557Z,41.72
2023-02-19T03:45:01.773Z,38.17
2023-02-19T03:50:44.201Z,37.92
2023-02-19T03:56:00.343Z,36.75
2023-02-19T04:01:10.247Z,31.38
2023-02-19T04:06:14.387Z,35.33
2023-02-19T04:11:12.057Z,31.13
2023-02-19T04:16:12.840Z,27.93
2023-02-19T04:21:10.297Z,28.77
2023-02-19T04:26:08.269Z,27.97
2023-02-19T04:31:04.841Z,30.20
2023-02-19T04:36:01.382Z,28.05
2023-02-19T04:40:57.836Z,26.05
2023-02-19T04:45:54.209Z,24.58
2023-02-19T04:50:50.549Z,19.48
2023-02-19T04:55:48.081Z,22.80
2023-02-19T05:00:44.432Z,20.67
2023-02-19T05:05:40.797Z,17.98
2023-02-19T05:10:37.090Z,19.70
2023-02-19T05:15:33.659Z,15.55
2023-02-19T05:20:30.028Z,20.42
2023-02-19T05:25:26.403Z,17.23
2023-02-19T05:30:22.731Z,17.23
2023-02-19T05:35:19.076Z,18.42
2023-02-19T05:40:15.477Z,21.23
2023-02-19T05:45:11.764Z,19.13
2023-02-19T05:50:08.165Z,23.75
2023-02-19T05:55:04.712Z,23.65
2023-02-19T06:00:01.031Z,21.83
2023-02-19T06:04:57.348Z,17.55
2023-02-19T06:09:53.746Z,20.10
2023-02-19T06:14:50.601Z,28.38
2023-02-19T06:19:46.931Z,21.17
2023-02-19T06:24:43.251Z,23.80
2023-02-19T06:29:39.919Z,15.57
2023-02-19T06:34:36.694Z,17.10
2023-02-19T06:39:33.019Z,23.13
2023-02-19T06:44:29.365Z,19.38
2023-02-19T06:49:25.743Z,20.60
2023-02-19T06:54:22.206Z,14.95
2023-02-19T06:59:18.596Z,4.78
2023-02-19T07:04:15.913Z,0.85
2023-02-19T07:09:12.396Z,1.33
2023-02-19T07:14:17.273Z,1.27
2023-02-19T07:19:15.367Z,0.70
2023-02-19T07:24:11.754Z,1.30
2023-02-19T07:29:09.645Z,2.28
2023-02-19T07:34:07.165Z,1.30
2023-02-19T07:39:04.717Z,1.77
2023-02-19T07:44:01.105Z,1.77
2023-02-19T07:48:59.271Z,1.00
2023-02-19T07:53:55.889Z,0.77
2023-02-19T07:58:52.255Z,1.52
2023-02-19T08:03:50.461Z,1.15
2023-02-19T08:08:46.954Z,1.67
2023-02-19T08:13:43.276Z,1.35
2023-02-19T08:18:39.655Z,1.38
2023-02-19T08:23:36.115Z,1.30
2023-02-19T08:28:33.184Z,1.10
2023-02-19T08:33:30.488Z,0.88
2023-02-19T08:38:26.813Z,0.90
2023-02-19T08:43:23.363Z,1.08
2023-02-19T08:48:19.712Z,0.98
2023-02-19T08:53:16.048Z,0.80
2023-02-19T08:58:12.382Z,0.77
2023-02-19T09:03:09.173Z,1.65
2023-02-19T09:08:05.553Z,1.40
2023-02-19T09:13:02.608Z,0.98
2023-02-19T09:17:59.861Z,0.93
2023-02-19T09:22:57.446Z,1.15
2023-02-19T09:27:57.261Z,1.35
2023-02-19T09:32:53.948Z,1.00
2023-02-19T09:37:50.266Z,1.55
2023-02-19T09:42:47.817Z,2.47
2023-02-19T09:47:44.346Z,4.47
2023-02-19T09:52:51.291Z,2.58
2023-02-19T09:57:48.539Z,2.50
2023-02-19T10:02:44.935Z,2.33
2023-02-19T10:07:47.080Z,1.30
2023-02-19T10:12:47.919Z,1.20
2023-02-19T10:17:44.378Z,2.10
2023-02-19T10:22:40.759Z,1.35
2023-02-19T10:27:37.089Z,1.13
2023-02-19T10:32:33.572Z,1.00
2023-02-19T10:37:30.133Z,1.08
2023-02-19T10:42:26.646Z,1.52
2023-02-19T10:47:26.329Z,1.55
2023-02-19T10:52:32.652Z,1.63
2023-02-19T10:57:31.243Z,1.40
2023-02-19T11:02:29.003Z,3.17
2023-02-19T11:07:25.359Z,1.90
2023-02-19T11:12:28.214Z,2.15
2023-02-19T11:17:27.594Z,3.75
2023-02-19T11:22:40.684Z,1.38
2023-02-19T11:27:54.085Z,2.17
2023-02-19T11:32:50.386Z,2.47
2023-02-19T11:37:54.199Z,1.50
2023-02-19T11:43:05.673Z,1.40
2023-02-19T11:48:07.533Z,1.77
2023-02-19T11:53:27.818Z,1.77
2023-02-19T11:59:01.741Z,3.05
2023-02-19T12:04:16.716Z,1.70
2023-02-19T12:09:37.289Z,1.05
2023-02-19T12:14:45.252Z,1.45
2023-02-19T12:19:58.739Z,0.90
2023-02-19T12:25:19.373Z,1.40
2023-02-19T12:30:54.572Z,0.93
2023-02-19T12:36:16.315Z,2.45
2023-02-19T12:41:25.942Z,1.67
2023-02-19T12:46:32.117Z,1.70
2023-02-19T12:51:45.100Z,1.48
2023-02-19T12:56:48.820Z,2.00
2023-02-19T13:02:00.127Z,1.17
2023-02-19T13:07:02.421Z,1.00
2023-02-19T13:12:04.361Z,1.40
2023-02-19T13:17:10.619Z,2.15
2023-02-19T13:22:48.685Z,2.70
2023-02-19T13:28:02.506Z,2.00
2023-02-19T13:33:06.646Z,1.50
2023-02-19T13:43:13.828Z,3.22
2023-02-19T13:48:38.889Z,1.05
2023-02-19T13:53:51.759Z,1.13
2023-02-19T13:58:56.717Z,2.15
2023-02-19T14:04:10.353Z,1.10
2023-02-19T14:09:43.915Z,1.58
2023-02-19T14:14:56.589Z,0.70
2023-02-19T14:20:01.327Z,1.27
2023-02-19T14:24:58.145Z,0.90
2023-02-19T14:29:54.769Z,1.30
2023-02-19T14:34:51.209Z,3.83
2023-02-19T14:39:48.397Z,1.60
2023-02-19T14:44:52.250Z,3.88
2023-02-19T14:49:54.015Z,2.70
2023-02-19T14:54:59.220Z,0.93
2023-02-19T15:00:00.615Z,3.65
2023-02-19T15:04:57.382Z,1.70
2023-02-19T15:09:57.504Z,1.35
2023-02-19T15:14:59.105Z,1.42
2023-02-19T15:19:58.311Z,1.10
2023-02-19T15:24:55.524Z,0.95
2023-02-19T15:29:53.889Z,1.02
2023-02-19T15:35:02.831Z,2.38
2023-02-19T15:40:02.844Z,1.08
2023-02-19T15:45:11.511Z,1.88
2023-02-19T15:50:13.802Z,1.58
2023-02-19T15:55:21.627Z,1.75
2023-02-19T16:00:24.655Z,0.80
2023-02-19T16:05:26.699Z,1.25
2023-02-19T16:10:25.265Z,1.25
2023-02-19T16:15:21.743Z,1.40
2023-02-19T16:20:26.434Z,2.65
2023-02-19T16:25:29.653Z,1.25
2023-02-19T16:30:33.687Z,0.98
2023-02-19T16:35:39.664Z,1.77
2023-02-19T16:40:48.074Z,4.25
2023-02-19T16:45:45.800Z,3.75
2023-02-19T16:50:42.364Z,4.27
2023-02-19T16:55:38.718Z,2.97
2023-02-19T17:00:35.409Z,4.55
2023-02-19T17:05:32.548Z,1.77
2023-02-19T17:10:28.965Z,4.60
2023-02-19T17:15:25.322Z,4.22
2023-02-19T17:20:29.427Z,2.55
2023-02-19T17:25:25.815Z,2.00
2023-02-19T17:30:28.190Z,1.50
2023-02-19T17:35:25.179Z,3.58
2023-02-19T17:40:32.876Z,2.90
2023-02-19T17:45:30.203Z,4.93
2023-02-19T17:50:29.988Z,2.40
2023-02-19T17:55:26.682Z,4.15
2023-02-19T18:00:28.962Z,4.05
2023-02-19T18:05:25.373Z,3.42
2023-02-19T18:10:23.471Z,8.32
2023-02-19T18:15:23.026Z,3.30
2023-02-19T18:20:24.054Z,5.20
2023-02-19T18:25:21.794Z,6.20
2023-02-19T18:30:20.595Z,10.27
2023-02-19T18:35:19.456Z,9.98
2023-02-19T18:40:15.832Z,6.80
2023-02-19T18:45:12.507Z,8.60
2023-02-19T18:50:09.842Z,5.18
2023-02-19T18:55:06.713Z,11.00
2023-02-19T19:00:06.297Z,5.32
2023-02-19T19:05:02.823Z,5.10
2023-02-19T19:09:59.315Z,7.32
2023-02-19T19:14:55.854Z,6.82
2023-02-19T19:19:52.200Z,6.65
2023-02-19T19:24:48.850Z,7.32
2023-02-19T19:29:47.249Z,8.70
2023-02-19T19:34:43.963Z,13.70
2023-02-19T19:39:42.774Z,13.93
2023-02-19T19:49:35.748Z,12.80
2023-02-19T19:54:32.145Z,12.10
2023-02-19T19:59:28.480Z,9.80
2023-02-19T20:04:25.596Z,10.18
2023-02-19T20:09:25.501Z,11.20
2023-02-19T20:14:23.765Z,13.93
2023-02-19T20:19:20.938Z,9.50
2023-02-19T20:24:20.459Z,13.40
2023-02-19T20:29:17.260Z,14.57
2023-02-19T20:34:13.653Z,12.32
2023-02-19T20:39:10.140Z,12.82
2023-02-19T20:44:06.492Z,20.42
2023-02-19T20:49:02.837Z,17.40
2023-02-19T20:53:59.249Z,16.33
2023-02-19T20:58:55.583Z,18.80
2023-02-19T21:03:51.920Z,17.20
2023-02-19T21:08:48.284Z,15.00
2023-02-19T21:13:44.642Z,16.73
2023-02-19T21:18:41.417Z,15.13
2023-02-19T21:23:37.836Z,13.15
2023-02-19T21:28:34.180Z,14.55
2023-02-19T21:33:30.643Z,14.60
2023-02-19T21:38:27.058Z,11.43
2023-02-19T21:43:23.427Z,13.75
2023-02-19T21:48:19.804Z,10.02
2023-02-19T21:53:16.419Z,9.68
2023-02-19T21:58:12.770Z,12.10
2023-02-19T22:03:15.989Z,13.93
2023-02-19T22:08:15.488Z,15.90
2023-02-19T22:13:11.884Z,9.55
2023-02-19T22:18:08.246Z,10.40
2023-02-19T22:23:05.230Z,10.93
2023-02-19T22:28:03.747Z,10.40
2023-02-19T22:33:00.218Z,10.75
2023-02-19T22:37:56.658Z,10.05
2023-02-19T22:42:53.115Z,10.00
2023-02-19T22:47:49.523Z,12.40
2023-02-19T22:52:45.905Z,10.40
2023-02-19T22:57:42.288Z,10.77
2023-02-19T23:02:38.630Z,11.95
2023-02-19T23:07:35.005Z,10.93
2023-02-19T23:12:31.368Z,10.90
2023-02-19T23:17:27.822Z,12.88
2023-02-19T23:22:24.419Z,8.75
2023-02-19T23:27:21.181Z,9.95
2023-02-19T23:32:20.903Z,12.15
2023-02-19T23:37:17.678Z,9.57
2023-02-19T23:42:19.208Z,11.77
2023-02-19T23:47:15.759Z,14.88
2023-02-19T23:52:12.088Z,13.48
2023-02-19T23:57:08.504Z,16.08
